createdAt,value
2022-08-17T00:00:04.091Z,17.66
2022-08-17T00:03:06.373Z,17.63
2022-08-17T00:05:40.796Z,17.66
2022-08-17T00:08:08.743Z,17.65
2022-08-17T00:10:36.648Z,17.62
2022-08-17T00:13:23.193Z,17.56
2022-08-17T00:15:51.414Z,17.54
2022-08-17T00:19:01.315Z,17.51
2022-08-17T00:21:10.840Z,17.58
2022-08-17T00:23:47.766Z,17.57
2022-08-17T00:26:38.782Z,17.49
2022-08-17T00:29:08.226Z,17.41
2022-08-17T00:31:36.810Z,17.39
2022-08-17T00:34:06.320Z,17.41
2022-08-17T00:36:33.696Z,17.39
2022-08-17T00:39:01.021Z,17.35
2022-08-17T00:41:29.497Z,17.39
2022-08-17T00:44:05.536Z,17.43
2022-08-17T00:46:41.000Z,17.46
2022-08-17T00:49:10.896Z,17.46
2022-08-17T00:51:59.757Z,17.40
2022-08-17T00:54:42.541Z,17.34
2022-08-17T00:57:21.614Z,17.27
2022-08-17T01:00:01.950Z,17.28
2022-08-17T01:02:42.093Z,17.25
2022-08-17T01:05:20.628Z,17.19
2022-08-17T01:07:52.955Z,17.18
2022-08-17T01:10:59.305Z,17.13
2022-08-17T01:13:15.953Z,17.10
2022-08-17T01:15:57.415Z,17.05
2022-08-17T01:18:26.957Z,17.01
2022-08-17T01:20:58.933Z,17.00
2022-08-17T01:23:28.936Z,16.92
2022-08-17T01:25:59.978Z,16.88
2022-08-17T01:28:52.785Z,16.90
2022-08-17T01:31:20.334Z,16.83
2022-08-17T01:33:47.760Z,16.82
2022-08-17T01:36:15.267Z,16.87
2022-08-17T01:38:42.792Z,16.97
2022-08-17T01:41:15.639Z,17.00
2022-08-17T01:43:59.138Z,16.94
2022-08-17T01:46:33.091Z,16.90
2022-08-17T01:49:05.326Z,16.90
2022-08-17T01:51:33.719Z,16.82
2022-08-17T01:54:08.567Z,16.82
2022-08-17T01:56:43.828Z,16.78
2022-08-17T01:59:17.034Z,16.86
2022-08-17T02:01:45.763Z,16.88
2022-08-17T02:04:13.960Z,16.80
2022-08-17T02:06:52.632Z,16.76
2022-08-17T02:09:25.953Z,16.79
2022-08-17T02:11:59.810Z,16.73
2022-08-17T02:14:47.269Z,16.68
2022-08-17T02:17:14.588Z,16.71
2022-08-17T02:19:41.999Z,16.76
2022-08-17T02:22:10.251Z,16.73
2022-08-17T02:25:00.288Z,16.66
2022-08-17T02:27:26.764Z,16.62
2022-08-17T02:29:54.219Z,16.61
2022-08-17T02:32:27.693Z,16.64
2022-08-17T02:34:58.166Z,16.67
2022-08-17T02:37:30.456Z,16.65
2022-08-17T02:39:59.585Z,16.59
2022-08-17T02:42:40.562Z,16.67
2022-08-17T02:45:16.615Z,16.76
2022-08-17T02:47:44.745Z,16.79
2022-08-17T02:50:16.109Z,16.79
2022-08-17T02:52:47.492Z,16.74
2022-08-17T02:55:41.716Z,16.70
2022-08-17T02:58:10.990Z,16.72
2022-08-17T03:00:46.355Z,16.67
2022-08-17T03:03:18.768Z,16.61
2022-08-17T03:05:53.550Z,16.60
2022-08-17T03:08:20.964Z,16.54
2022-08-17T03:10:48.814Z,16.48
2022-08-17T03:13:16.951Z,16.47
2022-08-17T03:15:46.207Z,16.45
2022-08-17T03:18:24.346Z,16.52
2022-08-17T03:20:56.998Z,16.53
2022-08-17T03:23:25.744Z,16.50
2022-08-17T03:25:54.618Z,16.55
2022-08-17T03:28:22.989Z,16.53
2022-08-17T03:30:51.429Z,16.48
2022-08-17T03:33:19.905Z,16.47
2022-08-17T03:35:47.882Z,16.47
2022-08-17T03:38:17.411Z,16.46
2022-08-17T03:40:56.328Z,16.36
2022-08-17T03:43:32.996Z,16.32
2022-08-17T03:46:28.233Z,16.32
2022-08-17T03:49:19.900Z,16.34
2022-08-17T03:52:06.136Z,16.40
2022-08-17T03:54:52.096Z,16.47
2022-08-17T03:57:19.951Z,16.50
2022-08-17T03:59:47.917Z,16.52
2022-08-17T04:02:31.206Z,16.51
2022-08-17T04:04:59.181Z,16.61
2022-08-17T04:07:30.083Z,16.66
2022-08-17T04:09:58.330Z,16.75
2022-08-17T04:12:30.997Z,16.79
2022-08-17T04:14:59.169Z,16.91
2022-08-17T04:17:29.284Z,17.06
2022-08-17T04:19:57.662Z,17.16
2022-08-17T04:22:31.377Z,17.36
2022-08-17T04:25:13.852Z,17.63
2022-08-17T04:27:41.312Z,17.73
2022-08-17T04:30:09.763Z,18.01
2022-08-17T04:33:06.482Z,18.40
2022-08-17T04:35:49.197Z,18.66
2022-08-17T04:38:24.541Z,18.98
2022-08-17T04:41:11.392Z,19.16
2022-08-17T04:43:41.515Z,19.44
2022-08-17T04:46:17.557Z,19.75
2022-08-17T04:48:49.407Z,20.04
2022-08-17T04:51:23.339Z,20.57
2022-08-17T04:53:55.433Z,20.95
2022-08-17T04:56:25.942Z,21.22
2022-08-17T04:58:58.583Z,21.10
2022-08-17T05:01:28.952Z,20.86
2022-08-17T05:04:21.078Z,20.72
2022-08-17T05:06:49.755Z,20.89
2022-08-17T05:09:18.347Z,21.35
2022-08-17T05:11:46.722Z,21.71
2022-08-17T05:14:14.857Z,21.71
2022-08-17T05:16:42.221Z,21.60
2022-08-17T05:19:09.616Z,21.74
2022-08-17T05:21:36.980Z,22.58
2022-08-17T05:24:06.044Z,23.09
2022-08-17T05:26:52.009Z,23.18
2022-08-17T05:29:19.693Z,23.41
2022-08-17T05:31:47.023Z,23.69
2022-08-17T05:34:14.723Z,23.78
2022-08-17T05:36:44.508Z,24.14
2022-08-17T05:39:16.792Z,24.39
2022-08-17T05:41:48.145Z,24.97
2022-08-17T05:44:17.185Z,25.39
2022-08-17T05:46:51.778Z,25.86
2022-08-17T05:49:27.372Z,26.33
2022-08-17T05:52:09.449Z,27.44
2022-08-17T05:55:22.360Z,28.07
2022-08-17T05:58:00.197Z,28.06
2022-08-17T06:00:42.135Z,28.86
2022-08-17T06:03:35.093Z,29.64
2022-08-17T06:06:44.854Z,30.10
2022-08-17T06:10:00.384Z,30.30
2022-08-17T06:12:43.982Z,30.86
2022-08-17T06:15:39.020Z,30.64
2022-08-17T06:18:13.717Z,31.20
2022-08-17T06:20:57.595Z,31.90
2022-08-17T06:23:37.646Z,32.47
2022-08-17T06:26:17.561Z,32.99
2022-08-17T06:28:53.440Z,32.74
2022-08-17T06:31:31.922Z,33.37
2022-08-17T06:34:04.235Z,33.42
2022-08-17T06:37:05.684Z,34.05
2022-08-17T06:39:43.793Z,34.82
2022-08-17T06:43:02.648Z,35.25
2022-08-17T06:45:13.737Z,35.47
2022-08-17T06:48:09.973Z,35.12
2022-08-17T06:50:47.820Z,36.49
2022-08-17T06:53:36.869Z,36.05
2022-08-17T06:56:57.460Z,35.60
2022-08-17T06:59:55.477Z,37.04
2022-08-17T07:02:52.015Z,37.87
2022-08-17T07:05:44.342Z,38.46
2022-08-17T07:08:43.373Z,39.48
2022-08-17T07:11:17.231Z,38.12
2022-08-17T07:14:41.451Z,37.73
2022-08-17T07:17:16.014Z,38.68
2022-08-17T07:19:47.576Z,39.41
2022-08-17T07:22:57.742Z,39.44
2022-08-17T07:25:21.923Z,39.31
2022-08-17T07:27:56.015Z,39.20
2022-08-17T07:30:49.002Z,39.65
2022-08-17T07:33:30.321Z,40.04
2022-08-17T07:35:58.457Z,40.28
2022-08-17T07:38:29.764Z,39.91
2022-08-17T07:41:02.203Z,40.56
2022-08-17T07:43:39.586Z,41.71
2022-08-17T07:46:53.772Z,41.82
2022-08-17T07:49:40.744Z,41.37
2022-08-17T07:52:51.998Z,40.94
2022-08-17T07:55:35.045Z,41.07
2022-08-17T07:58:03.585Z,40.42
2022-08-17T08:00:33.053Z,40.80
2022-08-17T08:03:14.872Z,41.10
2022-08-17T08:05:56.855Z,41.47
2022-08-17T08:08:50.539Z,41.56
2022-08-17T08:11:35.841Z,42.21
2022-08-17T08:14:33.703Z,43.14
2022-08-17T08:17:06.702Z,42.48
2022-08-17T08:19:36.768Z,42.90
2022-08-17T08:22:18.639Z,43.95
2022-08-17T08:24:56.338Z,43.58
2022-08-17T08:27:53.413Z,43.92
2022-08-17T08:30:22.130Z,43.69
2022-08-17T08:33:22.732Z,43.24
2022-08-17T08:36:07.778Z,42.91
2022-08-17T08:38:50.156Z,42.62
2022-08-17T08:41:44.919Z,43.56
2022-08-17T08:45:01.340Z,43.48
2022-08-17T08:47:51.921Z,43.54
2022-08-17T08:50:49.538Z,43.26
2022-08-17T08:53:44.370Z,43.40
2022-08-17T08:57:19.783Z,41.22
2022-08-17T09:00:13.390Z,42.32
2022-08-17T09:03:20.215Z,43.66
2022-08-17T09:06:32.488Z,44.06
2022-08-17T09:09:22.671Z,44.35
2022-08-17T09:12:17.035Z,44.37
2022-08-17T09:15:13.757Z,44.45
2022-08-17T09:19:00.309Z,44.46
2022-08-17T09:21:54.586Z,44.52
2022-08-17T09:25:23.472Z,45.32
2022-08-17T09:28:06.385Z,45.26
2022-08-17T09:30:55.358Z,44.23
2022-08-17T09:33:27.805Z,44.17
2022-08-17T09:36:05.587Z,44.64
2022-08-17T09:39:01.928Z,44.60
2022-08-17T09:42:07.011Z,45.51
2022-08-17T09:44:36.844Z,45.89
2022-08-17T09:47:26.565Z,45.07
2022-08-17T09:50:06.120Z,44.27
2022-08-17T09:52:33.563Z,43.73
2022-08-17T09:55:01.876Z,44.08
2022-08-17T09:57:53.497Z,44.06
2022-08-17T10:00:29.443Z,44.15
2022-08-17T10:03:51.039Z,43.13
2022-08-17T10:06:37.980Z,43.43
2022-08-17T10:09:22.163Z,43.91
2022-08-17T10:12:20.427Z,43.11
2022-08-17T10:15:07.670Z,43.73
2022-08-17T10:18:07.479Z,43.40
2022-08-17T10:21:14.507Z,43.09
2022-08-17T10:24:02.789Z,42.60
2022-08-17T10:26:50.235Z,43.25
2022-08-17T10:29:49.083Z,43.78
2022-08-17T10:32:37.965Z,42.28
2022-08-17T10:35:17.205Z,42.74
2022-08-17T10:38:24.568Z,42.67
2022-08-17T10:41:29.806Z,43.67
2022-08-17T10:44:38.017Z,43.74
2022-08-17T10:47:14.531Z,42.42
2022-08-17T10:49:54.060Z,42.58
2022-08-17T10:52:26.182Z,43.24
2022-08-17T10:54:58.336Z,43.12
2022-08-17T10:57:40.862Z,42.08
2022-08-17T11:00:37.920Z,41.61
2022-08-17T11:03:23.840Z,42.21
2022-08-17T11:06:22.587Z,41.50
2022-08-17T11:09:29.566Z,41.34
2022-08-17T11:12:54.638Z,40.71
2022-08-17T11:15:28.770Z,40.56
2022-08-17T11:18:26.654Z,40.70
2022-08-17T11:21:32.246Z,40.54
2022-08-17T11:24:17.712Z,40.40
2022-08-17T11:27:04.158Z,39.42
2022-08-17T11:29:52.978Z,38.83
2022-08-17T11:32:54.554Z,38.41
2022-08-17T11:35:22.277Z,37.91
2022-08-17T11:38:17.086Z,37.98
2022-08-17T11:40:53.373Z,37.61
2022-08-17T11:43:43.512Z,38.17
2022-08-17T11:46:51.726Z,37.62
2022-08-17T11:49:57.767Z,37.43
2022-08-17T11:52:45.948Z,36.94
2022-08-17T11:55:39.377Z,37.08
2022-08-17T11:58:29.642Z,36.68
2022-08-17T12:01:07.485Z,36.24
2022-08-17T12:03:34.636Z,36.06
2022-08-17T12:06:23.063Z,35.78
2022-08-17T12:09:25.172Z,35.30
2022-08-17T12:12:14.289Z,35.44
2022-08-17T12:15:12.929Z,34.78
2022-08-17T12:17:43.021Z,34.57
2022-08-17T12:20:30.836Z,34.42
2022-08-17T12:23:15.160Z,34.18
2022-08-17T12:26:10.112Z,34.07
2022-08-17T12:28:44.353Z,33.87
2022-08-17T12:31:27.600Z,33.86
2022-08-17T12:33:56.227Z,33.77
2022-08-17T12:36:26.546Z,33.55
2022-08-17T12:39:13.018Z,33.61
2022-08-17T12:41:50.740Z,33.34
2022-08-17T12:44:25.676Z,33.12
2022-08-17T12:47:22.613Z,33.10
2022-08-17T12:50:03.878Z,32.84
2022-08-17T12:52:33.223Z,32.81
2022-08-17T12:55:21.291Z,32.93
2022-08-17T12:57:59.622Z,33.11
2022-08-17T13:00:47.536Z,33.25
2022-08-17T13:03:23.182Z,33.24
2022-08-17T13:06:00.849Z,33.31
2022-08-17T13:08:38.001Z,33.23
2022-08-17T13:11:14.667Z,33.01
2022-08-17T13:13:47.210Z,33.08
2022-08-17T13:16:17.012Z,33.19
2022-08-17T13:19:39.850Z,32.88
2022-08-17T13:22:12.926Z,32.85
2022-08-17T13:24:56.477Z,32.59
2022-08-17T13:27:27.552Z,32.63
2022-08-17T13:30:07.395Z,32.58
2022-08-17T13:32:43.721Z,32.57
2022-08-17T13:35:47.672Z,32.82
2022-08-17T13:38:45.671Z,32.70
2022-08-17T13:41:35.500Z,32.37
2022-08-17T13:44:23.068Z,32.31
2022-08-17T13:46:56.946Z,32.17
2022-08-17T13:49:24.938Z,32.35
2022-08-17T13:52:32.146Z,32.10
2022-08-17T13:55:15.810Z,32.01
2022-08-17T13:58:06.529Z,31.69
2022-08-17T14:00:36.919Z,31.58
2022-08-17T14:03:05.444Z,31.65
2022-08-17T14:05:33.891Z,31.95
2022-08-17T14:08:06.852Z,32.17
2022-08-17T14:10:36.614Z,32.12
2022-08-17T14:13:05.902Z,31.98
2022-08-17T14:15:55.580Z,31.88
2022-08-17T14:18:34.299Z,31.83
2022-08-17T14:21:10.345Z,31.82
2022-08-17T14:23:38.115Z,31.70
2022-08-17T14:26:06.020Z,31.71
2022-08-17T14:28:33.494Z,31.62
2022-08-17T14:31:03.843Z,31.58
2022-08-17T14:33:31.281Z,31.52
2022-08-17T14:35:58.816Z,31.37
2022-08-17T14:38:26.310Z,31.41
2022-08-17T14:40:54.302Z,31.31
2022-08-17T14:43:21.801Z,30.94
2022-08-17T14:45:49.299Z,30.89
2022-08-17T14:48:16.728Z,30.88
2022-08-17T14:50:44.481Z,30.77
2022-08-17T14:53:15.430Z,30.87
2022-08-17T14:55:45.797Z,30.94
2022-08-17T14:58:15.066Z,30.97
2022-08-17T15:00:43.762Z,30.91
2022-08-17T15:03:11.842Z,30.84
2022-08-17T15:05:40.465Z,30.87
2022-08-17T15:08:08.017Z,30.82
2022-08-17T15:10:36.421Z,30.58
2022-08-17T15:13:04.957Z,30.44
2022-08-17T15:15:32.433Z,30.39
2022-08-17T15:18:00.150Z,30.22
2022-08-17T15:20:30.021Z,30.15
2022-08-17T15:22:59.437Z,30.24
2022-08-17T15:25:31.902Z,30.12
2022-08-17T15:28:00.663Z,29.95
2022-08-17T15:30:29.181Z,29.88
2022-08-17T15:32:59.098Z,29.88
2022-08-17T15:35:33.831Z,29.91
2022-08-17T15:38:11.273Z,29.92
2022-08-17T15:40:46.910Z,29.93
2022-08-17T15:43:24.773Z,29.87
2022-08-17T15:46:17.698Z,29.67
2022-08-17T15:48:49.755Z,29.58
2022-08-17T15:51:31.063Z,29.57
2022-08-17T15:54:18.846Z,29.47
2022-08-17T15:56:50.770Z,29.33
2022-08-17T15:59:18.454Z,29.30
2022-08-17T16:03:13.615Z,29.23
2022-08-17T16:04:33.379Z,29.10
2022-08-17T16:07:00.848Z,29.01
2022-08-17T16:09:28.793Z,28.84
2022-08-17T16:11:56.544Z,28.73
2022-08-17T16:14:30.338Z,28.67
2022-08-17T16:17:04.289Z,28.65
2022-08-17T16:19:33.189Z,28.56
2022-08-17T16:22:00.927Z,28.49
2022-08-17T16:24:28.585Z,28.46
2022-08-17T16:26:56.162Z,28.34
2022-08-17T16:29:23.624Z,28.19
2022-08-17T16:31:51.445Z,28.04
2022-08-17T16:34:19.570Z,27.99
2022-08-17T16:36:54.762Z,27.87
2022-08-17T16:39:29.290Z,27.67
2022-08-17T16:41:57.900Z,27.52
2022-08-17T16:44:27.551Z,27.39
2022-08-17T16:46:54.856Z,27.21
2022-08-17T16:49:35.509Z,27.12
2022-08-17T16:52:10.445Z,26.99
2022-08-17T16:54:43.602Z,26.87
2022-08-17T16:57:13.603Z,26.70
2022-08-17T16:59:44.967Z,26.59
2022-08-17T17:02:29.627Z,26.44
2022-08-17T17:05:06.504Z,26.27
2022-08-17T17:07:51.140Z,26.15
2022-08-17T17:10:24.831Z,25.99
2022-08-17T17:13:01.858Z,25.83
2022-08-17T17:15:53.590Z,25.66
2022-08-17T17:18:37.915Z,25.48
2022-08-17T17:21:10.016Z,25.33
2022-08-17T17:23:57.748Z,25.18
2022-08-17T17:26:48.397Z,25.01
2022-08-17T17:29:51.362Z,24.80
2022-08-17T17:33:19.250Z,24.58
2022-08-17T17:36:39.946Z,24.42
2022-08-17T17:39:18.956Z,24.25
2022-08-17T17:41:51.824Z,24.16
2022-08-17T17:44:30.281Z,23.98
2022-08-17T17:47:00.570Z,23.86
2022-08-17T17:49:38.262Z,23.67
2022-08-17T17:52:32.884Z,23.55
2022-08-17T17:55:54.979Z,23.37
2022-08-17T17:59:43.330Z,23.18
2022-08-17T18:02:51.503Z,23.17
2022-08-17T18:05:37.452Z,23.17
2022-08-17T18:08:34.307Z,23.17
2022-08-17T18:11:08.001Z,23.14
2022-08-17T18:14:18.597Z,23.06
2022-08-17T18:16:51.171Z,23.10
2022-08-17T18:19:20.794Z,23.12
2022-08-17T18:22:07.216Z,23.02
2022-08-17T18:24:43.254Z,22.86
2022-08-17T18:27:23.397Z,22.76
2022-08-17T18:29:54.249Z,22.64
2022-08-17T18:32:43.083Z,22.59
2022-08-17T18:35:10.401Z,22.51
2022-08-17T18:37:52.778Z,22.51
2022-08-17T18:40:20.236Z,22.38
2022-08-17T18:42:50.490Z,22.26
2022-08-17T18:45:40.867Z,22.14
2022-08-17T18:48:48.810Z,21.98
2022-08-17T18:51:41.656Z,21.94
2022-08-17T18:54:21.997Z,21.87
2022-08-17T18:56:56.558Z,21.86
2022-08-17T18:59:32.141Z,21.78
2022-08-17T19:02:24.219Z,21.78
2022-08-17T19:05:08.028Z,21.73
2022-08-17T19:07:46.670Z,21.76
2022-08-17T19:10:21.963Z,21.74
2022-08-17T19:13:23.994Z,21.58
2022-08-17T19:16:18.091Z,21.48
2022-08-17T19:19:19.666Z,21.40
2022-08-17T19:22:02.387Z,21.37
2022-08-17T19:24:33.664Z,21.39
2022-08-17T19:27:18.239Z,21.41
2022-08-17T19:30:07.155Z,21.38
2022-08-17T19:32:36.148Z,21.28
2022-08-17T19:35:07.269Z,21.19
2022-08-17T19:37:51.600Z,21.04
2022-08-17T19:41:01.851Z,20.95
2022-08-17T19:43:44.151Z,20.89
2022-08-17T19:46:19.307Z,20.88
2022-08-17T19:48:59.032Z,20.83
2022-08-17T19:51:50.772Z,20.74
2022-08-17T19:54:55.499Z,20.71
2022-08-17T19:58:03.143Z,20.66
2022-08-17T20:00:34.339Z,20.63
2022-08-17T20:03:16.628Z,20.57
2022-08-17T20:06:12.658Z,20.56
2022-08-17T20:08:48.017Z,20.52
2022-08-17T20:11:41.320Z,20.45
2022-08-17T20:14:18.882Z,20.56
2022-08-17T20:16:46.534Z,20.54
2022-08-17T20:19:23.096Z,20.46
2022-08-17T20:22:05.028Z,20.37
2022-08-17T20:24:44.598Z,20.31
2022-08-17T20:27:34.548Z,20.35
2022-08-17T20:30:10.556Z,20.23
2022-08-17T20:32:53.051Z,20.26
2022-08-17T20:35:31.974Z,20.22
2022-08-17T20:38:13.622Z,20.11
2022-08-17T20:40:57.578Z,20.06
2022-08-17T20:43:33.866Z,20.01
2022-08-17T20:46:19.146Z,20.01
2022-08-17T20:48:52.358Z,19.96
2022-08-17T20:51:39.576Z,19.93
2022-08-17T20:54:26.925Z,19.83
2022-08-17T20:56:58.062Z,19.81
2022-08-17T20:59:25.983Z,19.77
2022-08-17T21:02:18.829Z,19.75
2022-08-17T21:04:54.617Z,19.75
2022-08-17T21:07:54.066Z,19.73
2022-08-17T21:10:24.407Z,19.68
2022-08-17T21:13:15.520Z,19.58
2022-08-17T21:15:52.458Z,19.56
2022-08-17T21:19:30.966Z,19.57
2022-08-17T21:22:45.531Z,19.51
2022-08-17T21:25:32.691Z,19.47
2022-08-17T21:28:23.213Z,19.39
2022-08-17T21:31:09.033Z,19.34
2022-08-17T21:33:40.471Z,19.33
2022-08-17T21:36:13.632Z,19.32
2022-08-17T21:39:02.727Z,19.28
2022-08-17T21:41:55.420Z,19.24
2022-08-17T21:44:36.957Z,19.22
2022-08-17T21:47:30.172Z,19.16
2022-08-17T21:50:22.827Z,18.99
2022-08-17T21:52:54.741Z,18.89
2022-08-17T21:55:30.709Z,18.97
2022-08-17T21:58:13.973Z,19.03
2022-08-17T22:00:45.935Z,18.98
2022-08-17T22:03:26.253Z,18.98
2022-08-17T22:05:53.659Z,18.97
2022-08-17T22:08:26.785Z,18.93
2022-08-17T22:11:02.614Z,18.91
2022-08-17T22:13:30.322Z,18.90
2022-08-17T22:16:28.629Z,18.86
2022-08-17T22:18:58.975Z,18.82
2022-08-17T22:21:26.872Z,18.84
2022-08-17T22:24:16.070Z,18.82
2022-08-17T22:27:11.844Z,18.80
2022-08-17T22:29:59.294Z,18.76
2022-08-17T22:32:38.587Z,18.73
2022-08-17T22:35:33.522Z,18.71
2022-08-17T22:38:18.901Z,18.70
2022-08-17T22:40:49.977Z,18.69
2022-08-17T22:43:26.065Z,18.70
2022-08-17T22:46:00.134Z,18.69
2022-08-17T22:48:30.458Z,18.73
2022-08-17T22:51:14.711Z,18.68
2022-08-17T22:54:14.591Z,18.64
2022-08-17T22:57:19.658Z,18.64
2022-08-17T22:59:55.807Z,18.61
2022-08-17T23:02:35.048Z,18.58
2022-08-17T23:05:13.062Z,18.60
2022-08-17T23:07:42.491Z,18.62
2022-08-17T23:10:12.266Z,18.62
2022-08-17T23:12:40.080Z,18.63
2022-08-17T23:15:19.082Z,18.62
2022-08-17T23:17:46.818Z,18.59
2022-08-17T23:20:16.515Z,18.57
2022-08-17T23:22:52.287Z,18.52
2022-08-17T23:25:28.921Z,18.52
2022-08-17T23:27:58.450Z,18.50
2022-08-17T23:30:31.262Z,18.45
2022-08-17T23:33:02.498Z,18.38
2022-08-17T23:35:40.444Z,18.36
2022-08-17T23:38:13.411Z,18.38
2022-08-17T23:40:41.474Z,18.35
2022-08-17T23:43:23.521Z,18.30
2022-08-17T23:45:54.727Z,18.27
2022-08-17T23:48:27.791Z,18.30
2022-08-17T23:51:08.792Z,18.33
2022-08-17T23:53:40.318Z,18.31
2022-08-17T23:56:11.132Z,18.22
2022-08-17T23:58:44.868Z,18.19
